createdAt,value
2022-12-06T00:00:22.013Z,3.26
2022-12-06T00:02:54.423Z,3.31
2022-12-06T00:05:26.829Z,3.37
2022-12-06T00:07:59.235Z,3.45
2022-12-06T00:10:34.502Z,3.46
2022-12-06T00:13:07.519Z,3.46
2022-12-06T00:15:39.875Z,3.49
2022-12-06T00:18:12.254Z,3.56
2022-12-06T00:20:44.546Z,3.66
2022-12-06T00:23:16.956Z,3.65
2022-12-06T00:25:49.277Z,3.65
2022-12-06T00:28:22.281Z,3.62
2022-12-06T00:30:57.837Z,3.66
2022-12-06T00:33:30.498Z,3.66
2022-12-06T00:36:05.420Z,3.75
2022-12-06T00:38:37.885Z,3.81
2022-12-06T00:41:12.415Z,3.83
2022-12-06T00:43:45.905Z,3.66
2022-12-06T00:46:21.030Z,3.44
2022-12-06T00:48:54.955Z,3.33
2022-12-06T00:51:29.873Z,3.42
2022-12-06T00:54:02.842Z,3.52
2022-12-06T00:56:36.532Z,3.58
2022-12-06T00:59:10.012Z,3.62
2022-12-06T01:01:42.417Z,3.66
2022-12-06T01:04:14.835Z,3.74
2022-12-06T01:06:47.170Z,3.81
2022-12-06T01:09:19.521Z,3.85
2022-12-06T01:11:51.870Z,3.80
2022-12-06T01:14:25.371Z,3.91
2022-12-06T01:16:57.786Z,3.97
2022-12-06T01:19:30.129Z,3.98
2022-12-06T01:22:02.550Z,3.97
2022-12-06T01:24:34.953Z,4.03
2022-12-06T01:27:07.330Z,4.08
2022-12-06T01:29:40.416Z,4.11
2022-12-06T01:32:13.141Z,4.12
2022-12-06T01:34:45.469Z,4.05
2022-12-06T01:37:17.984Z,4.05
2022-12-06T01:39:50.682Z,4.09
2022-12-06T01:42:23.054Z,4.13
2022-12-06T01:44:58.683Z,4.12
2022-12-06T01:47:34.189Z,4.07
2022-12-06T01:50:11.873Z,3.96
2022-12-06T01:52:51.945Z,4.01
2022-12-06T01:55:27.907Z,3.94
2022-12-06T01:58:05.494Z,3.89
2022-12-06T02:00:38.648Z,3.88
2022-12-06T02:03:16.204Z,3.88
2022-12-06T02:05:49.015Z,3.94
2022-12-06T02:08:21.861Z,3.99
2022-12-06T02:10:54.466Z,4.01
2022-12-06T02:13:27.174Z,4.01
2022-12-06T02:16:11.826Z,3.98
2022-12-06T02:18:49.544Z,3.96
2022-12-06T02:21:32.242Z,3.97
2022-12-06T02:24:58.493Z,3.97
2022-12-06T02:27:51.265Z,3.95
2022-12-06T02:30:41.879Z,3.92
2022-12-06T02:33:21.405Z,3.88
2022-12-06T02:36:02.620Z,3.82
2022-12-06T02:38:39.036Z,3.75
2022-12-06T02:41:21.253Z,3.70
2022-12-06T02:43:59.827Z,3.59
2022-12-06T02:46:36.814Z,3.45
2022-12-06T02:49:13.016Z,3.55
2022-12-06T02:51:47.354Z,3.57
2022-12-06T02:54:21.514Z,3.49
2022-12-06T02:56:53.848Z,3.54
2022-12-06T02:59:26.159Z,3.66
2022-12-06T03:02:01.660Z,3.61
2022-12-06T03:04:48.347Z,3.63
2022-12-06T03:07:30.310Z,3.65
2022-12-06T03:10:15.823Z,3.65
2022-12-06T03:12:56.087Z,3.62
2022-12-06T03:15:37.752Z,3.62
2022-12-06T03:18:18.395Z,3.70
2022-12-06T03:20:54.199Z,3.78
2022-12-06T03:23:31.820Z,3.79
2022-12-06T03:26:07.453Z,3.73
2022-12-06T03:28:42.150Z,3.78
2022-12-06T03:31:15.164Z,3.83
2022-12-06T03:33:53.470Z,3.85
2022-12-06T03:36:27.743Z,3.93
2022-12-06T03:39:03.793Z,3.96
2022-12-06T03:41:41.712Z,4.03
2022-12-06T03:44:14.262Z,4.07
2022-12-06T03:46:50.283Z,4.06
2022-12-06T03:49:28.675Z,4.07
2022-12-06T03:52:01.648Z,4.00
2022-12-06T03:54:34.033Z,3.94
2022-12-06T03:57:06.622Z,3.91
2022-12-06T03:59:39.014Z,3.68
2022-12-06T04:02:11.860Z,3.64
2022-12-06T04:04:44.892Z,3.69
2022-12-06T04:07:20.434Z,3.54
2022-12-06T04:09:55.545Z,3.43
2022-12-06T04:12:46.867Z,3.38
2022-12-06T04:15:20.222Z,3.35
2022-12-06T04:18:12.962Z,3.47
2022-12-06T04:21:06.332Z,3.55
2022-12-06T04:23:40.962Z,3.61
2022-12-06T04:26:15.543Z,3.62
2022-12-06T04:29:07.337Z,3.72
2022-12-06T04:31:58.609Z,3.57
2022-12-06T04:34:49.052Z,3.61
2022-12-06T04:37:40.290Z,3.55
2022-12-06T04:40:12.626Z,3.52
2022-12-06T04:43:02.947Z,3.58
2022-12-06T04:45:35.298Z,3.57
2022-12-06T04:48:07.650Z,3.63
2022-12-06T04:50:39.972Z,3.72
2022-12-06T04:53:13.026Z,3.57
2022-12-06T04:55:45.612Z,3.61
2022-12-06T04:58:18.073Z,3.45
2022-12-06T05:00:50.777Z,3.42
2022-12-06T05:03:23.231Z,3.41
2022-12-06T05:05:55.685Z,3.41
2022-12-06T05:08:28.737Z,3.43
2022-12-06T05:11:01.101Z,3.36
2022-12-06T05:13:33.479Z,3.41
2022-12-06T05:16:07.477Z,3.42
2022-12-06T05:18:39.877Z,3.47
2022-12-06T05:21:14.588Z,3.52
2022-12-06T05:23:47.623Z,3.51
2022-12-06T05:26:21.840Z,3.21
2022-12-06T05:28:55.072Z,3.18
2022-12-06T05:31:27.683Z,3.21
2022-12-06T05:34:00.047Z,3.19
2022-12-06T05:36:32.333Z,3.07
2022-12-06T05:39:05.350Z,3.13
2022-12-06T05:41:37.721Z,3.16
2022-12-06T05:44:10.867Z,3.05
2022-12-06T05:46:43.212Z,3.09
2022-12-06T05:49:15.620Z,3.08
2022-12-06T05:51:47.977Z,3.08
2022-12-06T05:54:21.328Z,2.98
2022-12-06T05:56:54.823Z,2.91
2022-12-06T05:59:27.195Z,2.98
2022-12-06T06:01:59.640Z,3.01
2022-12-06T06:04:32.052Z,3.09
2022-12-06T06:07:04.396Z,3.03
2022-12-06T06:09:37.496Z,3.00
2022-12-06T06:12:12.601Z,3.01
2022-12-06T06:14:45.332Z,3.06
2022-12-06T06:17:17.677Z,3.06
2022-12-06T06:19:51.550Z,3.08
2022-12-06T06:22:24.137Z,3.13
2022-12-06T06:24:57.222Z,3.11
2022-12-06T06:27:33.132Z,3.14
2022-12-06T06:30:08.021Z,3.16
2022-12-06T06:32:40.484Z,3.20
2022-12-06T06:35:12.967Z,3.23
2022-12-06T06:37:45.495Z,3.25
2022-12-06T06:40:18.869Z,3.27
2022-12-06T06:42:51.362Z,3.29
2022-12-06T06:45:28.667Z,3.33
2022-12-06T06:48:01.667Z,3.42
2022-12-06T06:50:33.987Z,3.44
2022-12-06T06:53:06.589Z,3.47
2022-12-06T06:55:39.791Z,3.53
2022-12-06T06:58:13.604Z,3.48
2022-12-06T07:00:45.992Z,3.59
2022-12-06T07:03:19.658Z,3.67
2022-12-06T07:05:52.705Z,3.76
2022-12-06T07:08:25.500Z,3.76
2022-12-06T07:10:58.881Z,3.81
2022-12-06T07:13:31.859Z,3.73
2022-12-06T07:16:05.417Z,3.56
2022-12-06T07:18:37.855Z,3.61
2022-12-06T07:21:13.497Z,3.63
2022-12-06T07:23:45.912Z,3.70
2022-12-06T07:26:20.633Z,3.66
2022-12-06T07:28:53.054Z,3.80
2022-12-06T07:31:27.296Z,3.96
2022-12-06T07:34:00.987Z,4.07
2022-12-06T07:36:33.825Z,4.06
2022-12-06T07:39:11.556Z,4.25
2022-12-06T07:42:05.508Z,4.32
2022-12-06T07:45:02.271Z,4.41
2022-12-06T07:47:36.897Z,4.50
2022-12-06T07:50:17.355Z,4.45
2022-12-06T07:52:51.102Z,4.56
2022-12-06T07:55:23.638Z,4.60
2022-12-06T07:57:56.605Z,4.63
2022-12-06T08:00:29.030Z,4.70
2022-12-06T08:03:01.323Z,4.51
2022-12-06T08:05:33.609Z,4.60
2022-12-06T08:08:06.514Z,4.72
2022-12-06T08:10:38.861Z,4.83
2022-12-06T08:13:11.901Z,4.86
2022-12-06T08:15:44.643Z,4.85
2022-12-06T08:18:17.069Z,4.87
2022-12-06T08:20:49.772Z,5.08
2022-12-06T08:23:22.140Z,4.94
2022-12-06T08:25:58.395Z,5.06
2022-12-06T08:28:32.879Z,5.11
2022-12-06T08:31:06.794Z,5.24
2022-12-06T08:33:39.604Z,5.28
2022-12-06T08:36:14.029Z,5.04
2022-12-06T08:38:46.981Z,5.07
2022-12-06T08:41:43.209Z,4.92
2022-12-06T08:44:19.098Z,5.06
2022-12-06T08:46:52.438Z,5.01
2022-12-06T08:49:26.227Z,5.10
2022-12-06T08:51:59.238Z,5.30
2022-12-06T08:54:33.838Z,5.45
2022-12-06T08:57:06.244Z,5.38
2022-12-06T08:59:39.256Z,5.45
2022-12-06T09:02:12.842Z,5.36
2022-12-06T09:04:45.460Z,5.48
2022-12-06T09:07:18.010Z,5.57
2022-12-06T09:09:50.317Z,5.72
2022-12-06T09:12:23.038Z,5.78
2022-12-06T09:14:56.113Z,6.02
2022-12-06T09:17:28.460Z,6.01
2022-12-06T09:20:05.829Z,6.38
2022-12-06T09:22:38.829Z,6.62
2022-12-06T09:25:11.207Z,6.76
2022-12-06T09:27:43.808Z,6.82
2022-12-06T09:30:17.247Z,6.89
2022-12-06T09:32:49.627Z,6.95
2022-12-06T09:35:25.031Z,7.07
2022-12-06T09:37:59.057Z,7.15
2022-12-06T09:40:38.473Z,7.38
2022-12-06T09:43:25.463Z,7.66
2022-12-06T09:46:18.661Z,7.85
2022-12-06T09:49:12.784Z,7.94
2022-12-06T09:52:00.118Z,8.00
2022-12-06T09:54:53.533Z,8.03
2022-12-06T09:57:35.607Z,8.03
2022-12-06T10:00:17.620Z,7.85
2022-12-06T10:03:27.308Z,7.97
2022-12-06T10:06:02.106Z,8.04
2022-12-06T10:09:03.311Z,8.03
2022-12-06T10:11:52.337Z,7.81
2022-12-06T10:14:41.443Z,7.82
2022-12-06T10:17:23.835Z,7.55
2022-12-06T10:20:07.248Z,7.79
2022-12-06T10:22:51.508Z,8.00
2022-12-06T10:25:30.216Z,7.85
2022-12-06T10:28:11.232Z,8.04
2022-12-06T10:30:50.353Z,7.81
2022-12-06T10:33:33.657Z,7.89
2022-12-06T10:36:09.746Z,8.05
2022-12-06T10:38:48.574Z,8.14
2022-12-06T10:41:30.089Z,7.89
2022-12-06T10:44:06.835Z,7.88
2022-12-06T10:47:03.176Z,7.44
2022-12-06T10:49:43.788Z,7.10
2022-12-06T10:52:36.089Z,6.95
2022-12-06T10:55:22.134Z,6.98
2022-12-06T10:58:02.855Z,7.19
2022-12-06T11:00:40.915Z,7.15
2022-12-06T11:03:18.953Z,7.36
2022-12-06T11:05:57.116Z,7.57
2022-12-06T11:08:35.661Z,7.38
2022-12-06T11:11:14.952Z,7.20
2022-12-06T11:13:51.739Z,7.29
2022-12-06T11:16:29.935Z,7.33
2022-12-06T11:19:17.624Z,7.30
2022-12-06T11:21:53.893Z,7.25
2022-12-06T11:24:32.613Z,7.22
2022-12-06T11:27:14.898Z,7.14
2022-12-06T11:29:48.874Z,7.18
2022-12-06T11:32:21.228Z,7.33
2022-12-06T11:34:55.800Z,7.46
2022-12-06T11:37:31.503Z,7.57
2022-12-06T11:40:18.910Z,7.78
2022-12-06T11:42:51.643Z,8.04
2022-12-06T11:45:26.016Z,8.18
2022-12-06T11:48:01.123Z,8.29
2022-12-06T11:50:35.479Z,8.42
2022-12-06T11:53:16.884Z,8.57
2022-12-06T11:55:52.671Z,8.70
2022-12-06T11:58:30.451Z,8.79
2022-12-06T12:01:06.223Z,8.81
2022-12-06T12:03:41.245Z,8.93
2022-12-06T12:06:19.353Z,8.95
2022-12-06T12:08:58.136Z,8.90
2022-12-06T12:11:33.342Z,9.20
2022-12-06T12:14:16.119Z,9.19
2022-12-06T12:16:50.796Z,9.27
2022-12-06T12:19:33.989Z,8.89
2022-12-06T12:22:20.646Z,9.07
2022-12-06T12:25:17.984Z,9.21
2022-12-06T12:27:51.229Z,9.40
2022-12-06T12:30:30.785Z,9.33
2022-12-06T12:33:16.028Z,9.31
2022-12-06T12:35:53.771Z,9.50
2022-12-06T12:38:34.125Z,9.45
2022-12-06T12:41:22.760Z,9.34
2022-12-06T12:44:20.817Z,9.22
2022-12-06T12:46:55.472Z,9.04
2022-12-06T12:49:31.418Z,9.08
2022-12-06T12:52:26.902Z,9.06
2022-12-06T12:55:01.503Z,8.93
2022-12-06T12:57:34.187Z,9.21
2022-12-06T13:00:14.730Z,9.04
2022-12-06T13:02:52.544Z,8.75
2022-12-06T13:05:33.739Z,8.93
2022-12-06T13:08:15.544Z,8.95
2022-12-06T13:10:57.173Z,8.89
2022-12-06T13:13:37.444Z,8.84
2022-12-06T13:16:14.634Z,8.83
2022-12-06T13:18:50.942Z,8.89
2022-12-06T13:21:27.086Z,8.83
2022-12-06T13:24:07.400Z,8.70
2022-12-06T13:26:44.066Z,8.79
2022-12-06T13:29:25.084Z,8.75
2022-12-06T13:32:04.839Z,8.41
2022-12-06T13:34:38.961Z,8.62
2022-12-06T13:37:28.686Z,8.58
2022-12-06T13:40:02.566Z,8.58
2022-12-06T13:42:45.154Z,8.56
2022-12-06T13:45:41.996Z,8.46
2022-12-06T13:48:38.369Z,8.41
2022-12-06T13:51:32.237Z,8.21
2022-12-06T13:54:32.712Z,8.28
2022-12-06T13:57:28.291Z,8.30
2022-12-06T14:00:01.353Z,8.27
2022-12-06T14:02:45.778Z,8.35
2022-12-06T14:08:35.953Z,8.25
2022-12-06T14:11:18.475Z,8.10
2022-12-06T14:14:00.988Z,8.11
2022-12-06T14:16:38.634Z,7.95
2022-12-06T14:19:16.872Z,7.90
2022-12-06T14:21:55.100Z,7.85
2022-12-06T14:24:34.315Z,7.93
2022-12-06T14:27:13.190Z,7.93
2022-12-06T14:30:01.411Z,7.79
2022-12-06T14:32:36.693Z,7.72
2022-12-06T14:35:13.494Z,7.72
2022-12-06T14:37:47.095Z,7.67
2022-12-06T14:40:48.176Z,7.61
2022-12-06T14:43:19.015Z,7.48
2022-12-06T14:45:53.196Z,7.55
2022-12-06T14:48:25.910Z,7.54
2022-12-06T14:51:23.042Z,7.50
2022-12-06T14:53:55.880Z,7.59
2022-12-06T14:56:32.142Z,7.47
2022-12-06T14:59:11.004Z,7.55
2022-12-06T15:01:48.089Z,7.55
2022-12-06T15:04:25.941Z,7.57
2022-12-06T15:06:58.407Z,7.51
2022-12-06T15:09:43.051Z,7.46
2022-12-06T15:12:39.091Z,7.51
2022-12-06T15:15:33.356Z,7.45
2022-12-06T15:18:15.102Z,7.42
2022-12-06T15:20:48.214Z,7.42
2022-12-06T15:23:32.685Z,7.42
2022-12-06T15:26:07.129Z,7.31
2022-12-06T15:28:40.441Z,7.37
2022-12-06T15:31:18.224Z,7.39
2022-12-06T15:33:50.624Z,7.32
2022-12-06T15:36:26.024Z,7.34
2022-12-06T15:38:58.411Z,7.27
2022-12-06T15:41:30.857Z,7.29
2022-12-06T15:44:03.999Z,7.18
2022-12-06T15:46:36.443Z,7.23
2022-12-06T15:49:12.633Z,7.27
2022-12-06T15:51:45.168Z,7.25
2022-12-06T15:54:19.618Z,7.25
2022-12-06T15:56:52.645Z,7.15
2022-12-06T15:59:25.714Z,7.19
2022-12-06T16:01:58.101Z,7.17
2022-12-06T16:04:32.761Z,7.15
2022-12-06T16:07:05.106Z,7.14
2022-12-06T16:09:37.638Z,7.09
2022-12-06T16:12:10.405Z,6.93
2022-12-06T16:14:43.514Z,6.97
2022-12-06T16:17:15.910Z,6.97
2022-12-06T16:20:06.445Z,6.92
2022-12-06T16:22:57.040Z,6.98
2022-12-06T16:25:29.346Z,6.99
2022-12-06T16:28:01.644Z,6.94
2022-12-06T16:30:35.393Z,6.79
2022-12-06T16:33:08.178Z,6.83
2022-12-06T16:35:40.545Z,6.88
2022-12-06T16:38:14.110Z,6.89
2022-12-06T16:40:47.647Z,6.94
2022-12-06T16:43:19.974Z,6.93
2022-12-06T16:45:53.003Z,6.92
2022-12-06T16:48:26.545Z,6.94
2022-12-06T16:50:58.908Z,6.81
2022-12-06T16:53:31.269Z,6.82
2022-12-06T16:56:04.025Z,6.80
2022-12-06T16:58:36.853Z,6.80
2022-12-06T17:01:24.901Z,6.80
2022-12-06T17:03:59.396Z,6.81
2022-12-06T17:06:32.840Z,6.89
2022-12-06T17:09:05.503Z,6.86
2022-12-06T17:11:56.067Z,6.86
2022-12-06T17:14:28.474Z,6.78
2022-12-06T17:17:03.226Z,6.82
2022-12-06T17:19:35.554Z,6.88
2022-12-06T17:22:09.652Z,6.48
2022-12-06T17:24:42.408Z,6.77
2022-12-06T17:27:15.707Z,6.83
2022-12-06T17:29:48.094Z,6.88
2022-12-06T17:32:21.408Z,6.87
2022-12-06T17:34:54.089Z,6.72
2022-12-06T17:37:26.445Z,6.88
2022-12-06T17:39:58.937Z,6.83
2022-12-06T17:42:49.674Z,6.84
2022-12-06T17:45:24.771Z,6.93
2022-12-06T17:47:57.972Z,6.75
2022-12-06T17:50:30.362Z,6.81
2022-12-06T17:53:03.599Z,6.85
2022-12-06T17:55:36.000Z,6.79
2022-12-06T17:58:08.357Z,6.97
2022-12-06T18:00:40.786Z,6.97
2022-12-06T18:03:13.845Z,6.99
2022-12-06T18:05:47.649Z,6.85
2022-12-06T18:08:20.064Z,7.07
2022-12-06T18:10:56.900Z,7.03
2022-12-06T18:13:29.737Z,7.05
2022-12-06T18:16:12.032Z,7.16
2022-12-06T18:18:46.766Z,7.24
2022-12-06T18:21:19.741Z,7.31
2022-12-06T18:24:19.858Z,7.37
2022-12-06T18:26:45.327Z,7.22
2022-12-06T18:29:19.329Z,7.20
2022-12-06T18:31:52.467Z,7.14
2022-12-06T18:34:25.620Z,7.18
2022-12-06T18:36:58.009Z,7.23
2022-12-06T18:39:30.900Z,7.05
2022-12-06T18:42:03.345Z,7.01
2022-12-06T18:44:35.644Z,6.96
2022-12-06T18:47:07.948Z,7.00
2022-12-06T18:49:41.071Z,7.02
2022-12-06T18:52:13.485Z,7.11
2022-12-06T18:54:45.828Z,7.08
2022-12-06T18:57:18.846Z,7.05
2022-12-06T18:59:51.141Z,6.95
2022-12-06T19:02:23.497Z,6.89
2022-12-06T19:04:56.548Z,6.87
2022-12-06T19:07:28.947Z,6.97
2022-12-06T19:10:01.784Z,6.85
2022-12-06T19:12:34.460Z,6.89
2022-12-06T19:15:07.875Z,6.81
2022-12-06T19:17:42.440Z,6.96
2022-12-06T19:20:16.321Z,6.88
2022-12-06T19:22:48.891Z,6.91
2022-12-06T19:25:21.374Z,6.88
2022-12-06T19:27:53.774Z,6.95
2022-12-06T19:30:26.152Z,6.91
2022-12-06T19:32:58.533Z,6.97
2022-12-06T19:35:31.643Z,6.98
2022-12-06T19:38:03.982Z,6.99
2022-12-06T19:40:40.482Z,6.84
2022-12-06T19:43:30.746Z,6.82
2022-12-06T19:46:10.875Z,6.67
2022-12-06T19:48:43.767Z,6.62
2022-12-06T19:51:16.924Z,6.75
2022-12-06T19:53:49.535Z,6.90
2022-12-06T19:56:21.939Z,6.85
2022-12-06T19:58:56.515Z,6.67
2022-12-06T20:01:30.564Z,6.60
2022-12-06T20:04:03.020Z,6.69
2022-12-06T20:06:36.336Z,6.81
2022-12-06T20:09:08.909Z,6.82
2022-12-06T20:12:01.797Z,6.88
2022-12-06T20:14:37.717Z,6.88
2022-12-06T20:17:13.308Z,6.91
2022-12-06T20:19:45.999Z,6.68
2022-12-06T20:22:21.608Z,6.78
2022-12-06T20:24:54.001Z,6.79
2022-12-06T20:27:40.812Z,6.68
2022-12-06T20:30:14.125Z,6.77
2022-12-06T20:32:47.021Z,6.83
2022-12-06T20:35:19.388Z,6.78
2022-12-06T20:37:52.552Z,6.82
2022-12-06T20:40:29.911Z,6.90
2022-12-06T20:43:03.842Z,6.97
2022-12-06T20:45:36.236Z,6.93
2022-12-06T20:48:08.903Z,6.96
2022-12-06T20:50:41.465Z,7.04
2022-12-06T20:53:14.484Z,7.02
2022-12-06T20:55:46.988Z,6.99
2022-12-06T20:58:19.550Z,6.94
2022-12-06T21:00:51.983Z,7.04
2022-12-06T21:03:24.356Z,6.99
2022-12-06T21:06:00.261Z,6.95
2022-12-06T21:08:33.447Z,6.99
2022-12-06T21:11:23.699Z,7.06
2022-12-06T21:13:57.445Z,7.08
2022-12-06T21:16:31.955Z,7.23
2022-12-06T21:19:06.335Z,7.28
2022-12-06T21:21:41.061Z,7.37
2022-12-06T21:24:16.074Z,7.28
2022-12-06T21:26:48.887Z,6.73
2022-12-06T21:29:30.602Z,5.94
2022-12-06T21:32:03.850Z,5.40
2022-12-06T21:34:40.259Z,5.00
2022-12-06T21:37:17.081Z,4.64
2022-12-06T21:39:50.153Z,4.37
2022-12-06T21:42:23.278Z,4.29
2022-12-06T21:44:55.909Z,4.31
2022-12-06T21:47:28.322Z,4.39
2022-12-06T21:50:00.811Z,4.52
2022-12-06T21:52:33.383Z,4.78
2022-12-06T21:55:07.067Z,4.80
2022-12-06T21:57:39.527Z,4.95
2022-12-06T22:00:14.183Z,5.22
2022-12-06T22:02:50.228Z,5.50
2022-12-06T22:05:22.682Z,5.81
2022-12-06T22:07:55.074Z,5.97
2022-12-06T22:10:28.275Z,6.13
2022-12-06T22:13:00.642Z,6.29
2022-12-06T22:15:32.999Z,6.38
2022-12-06T22:18:05.369Z,6.51
2022-12-06T22:20:37.777Z,6.53
2022-12-06T22:23:10.189Z,6.66
2022-12-06T22:25:43.212Z,6.72
2022-12-06T22:28:15.552Z,6.71
2022-12-06T22:30:48.061Z,6.71
2022-12-06T22:33:20.448Z,6.84
2022-12-06T22:35:52.830Z,6.88
2022-12-06T22:38:25.188Z,6.85
2022-12-06T22:40:59.213Z,6.97
2022-12-06T22:43:32.321Z,7.02
2022-12-06T22:46:06.424Z,7.02
2022-12-06T22:48:39.187Z,6.99
2022-12-06T22:51:14.316Z,7.18
2022-12-06T22:53:48.780Z,7.22
2022-12-06T22:56:22.470Z,7.25
2022-12-06T22:58:56.505Z,7.18
2022-12-06T23:01:31.892Z,7.19
2022-12-06T23:04:06.255Z,7.10
2022-12-06T23:06:39.319Z,7.26
2022-12-06T23:09:14.493Z,7.19
2022-12-06T23:11:47.696Z,7.30
2022-12-06T23:14:20.133Z,7.35
2022-12-06T23:16:52.592Z,7.32
2022-12-06T23:19:24.965Z,7.36
2022-12-06T23:21:57.347Z,7.35
2022-12-06T23:24:29.688Z,7.37
2022-12-06T23:27:02.794Z,7.34
2022-12-06T23:29:35.219Z,7.35
2022-12-06T23:32:10.051Z,7.38
2022-12-06T23:34:42.504Z,7.39
2022-12-06T23:37:14.898Z,7.37
2022-12-06T23:39:47.224Z,7.31
2022-12-06T23:42:20.245Z,7.25
2022-12-06T23:44:52.588Z,7.30
2022-12-06T23:47:25.086Z,7.33
2022-12-06T23:49:57.427Z,7.27
2022-12-06T23:52:29.878Z,7.32
2022-12-06T23:55:02.267Z,7.24
2022-12-06T23:57:35.308Z,7.36
